KGUP/GUP METAR and TAF weather

Enter ICAO airport designator
Station Type Date Time Source
KGUP METAR 2022/06/27 06:53 UTC NOAA

KGUP 270653Z AUTO 08010KT 10SM FEW055 BKN110 14/12 A3045 RMK AO2 SLP176 T01440122 402170139


Station Type Date Time Source
KGUP Decoded METAR 2022/06/27 06:53 UTC NOAA

GALLUP MUNICIPAL AIRPORT, NM, United States (KGUP) 35-31N 108-47W 1971M
Jun 27, 2022 - 02:53 AM EDT / 2022.06.27 0653 UTC
Wind: from the E (080 degrees) at 12 MPH (10 KT):0
Visibility: 10 mile(s):0
Sky conditions: mostly cloudy
Temperature: 57.9 F (14.4 C)
Dew Point: 54.0 F (12.2 C)
Relative Humidity: 86%
Pressure (altimeter): 30.45 in. Hg (1031 hPa)
ob: KGUP 270653Z AUTO 08010KT 10SM FEW055 BKN110 14/12 A3045 RMK AO2 SLP176 T01440122 402170139
cycle: 7

Station Type Date Time Source
KGUP TAF 2022/06/27 06:42 UTC NOAA

TAF KGUP 270540Z 2706/2806 VRB05KT P6SM VCSH SCT025 OVC060
TEMPO 2706/2710 05011KT 4SM -SHRA BR OVC025
FM271200 VRB03KT P6SM VCSH SCT025 OVC050
FM271900 VRB06KT P6SM VCTS SCT030 SCT080CB
FM272200 12010KT P6SM SCT060 BKN100
FM280100 VRB06KT P6SM SCT090 BKN200

Example: see airport list